FIN87 EFHK-ZSPD
Flight info
| Callsign | FIN87 |
|---|---|
| Flight time | N/A |
| Altitude | 34000 |
| Route | KOIVU Y123 LARTI DCT KEMET DCT SOKVA DCT BERIL/N0492F350 DCT BOKSU/N0491F360 DCT TOXAR DCT ROBTU/N0481F350 DCT KENIN/N0478F370 DCT REVDA DCT UDROS UM859 KARDE UN644 ROLIN N644 LAGAS M747 SUBUT T916 BALUN/K0885F370 T916 KUNAS/K0889F390 T916 PIGAL M610 RULAD/K0883S1190 A343 POSOT B215 FKG W188 LIKMI W270 POPIB/K0885S1250 W270 DKO W69 HUR B339 SOTMU/K0882S1220 W98 ELKUR W40 DOXAB/K0885S1250 W40 YQG/K0878S1220 W142 DALIM/K0882S1250 A593 DPX A470 DALNU W166 ZJ W167 SASAN SAS81A |
| Aircraft | A359/H-SABDE1E2E3GHIJ1J2J4J5M1P2RWXYZ/LB1D1 |
Departure
| Time | 2026-04-25 19:31 |
|---|---|
| Airport | Helsinki Vantaa Airport (EFHK) |
Arrival
| Time | N/A |
|---|---|
| Airport | Shanghai Pudong International Airport (ZSPD) |
| Time | Latitude | Longitude | Altitude | Speed | Heading |
|---|---|---|---|---|---|
| 2026-04-25 18:51 | 60.31515 | 24.95707 | 173 ft | 0 kts | 137° |
| 2026-04-25 19:13 | 60.31517 | 24.95703 | 173 ft | 3 kts | 137° |
| 2026-04-25 19:13 | 60.31536 | 24.95667 | 173 ft | 4 kts | 137° |
| 2026-04-25 19:13 | 60.31555 | 24.95632 | 173 ft | 4 kts | 154° |
| 2026-04-25 19:14 | 60.31576 | 24.95629 | 173 ft | 4 kts | 223° |
| 2026-04-25 19:14 | 60.31587 | 24.95652 | 173 ft | 4 kts | 223° |
| 2026-04-25 19:14 | 60.31616 | 24.95692 | 173 ft | 4 kts | 202° |
| 2026-04-25 19:14 | 60.31640 | 24.95711 | 173 ft | 4 kts | 219° |
| 2026-04-25 19:15 | 60.31659 | 24.95750 | 173 ft | 4 kts | 227° |
| 2026-04-25 19:15 | 60.31677 | 24.95789 | 173 ft | 3 kts | 227° |
| 2026-04-25 19:15 | 60.31679 | 24.95794 | 173 ft | 0 kts | 227° |
| 2026-04-25 19:21 | 60.31675 | 24.95785 | 173 ft | 5 kts | 227° |
| 2026-04-25 19:21 | 60.31666 | 24.95619 | 173 ft | 6 kts | 311° |
| 2026-04-25 19:21 | 60.31697 | 24.95552 | 174 ft | 6 kts | 308° |
| 2026-04-25 19:22 | 60.31702 | 24.95505 | 175 ft | 1 kts | 268° |
| 2026-04-25 19:22 | 60.31673 | 24.95398 | 176 ft | 14 kts | 230° |
| 2026-04-25 19:22 | 60.31541 | 24.95107 | 176 ft | 15 kts | 227° |
| 2026-04-25 19:23 | 60.31468 | 24.94946 | 174 ft | 16 kts | 227° |
| 2026-04-25 19:23 | 60.31295 | 24.94565 | 165 ft | 21 kts | 227° |
| 2026-04-25 19:23 | 60.31201 | 24.94357 | 165 ft | 21 kts | 227° |
| 2026-04-25 19:24 | 60.31098 | 24.94134 | 163 ft | 22 kts | 227° |
| 2026-04-25 19:24 | 60.31031 | 24.93984 | 165 ft | 12 kts | 228° |
| 2026-04-25 19:24 | 60.30940 | 24.93784 | 166 ft | 7 kts | 227° |
| 2026-04-25 19:25 | 60.30869 | 24.93626 | 165 ft | 9 kts | 227° |
| 2026-04-25 19:25 | 60.30826 | 24.93527 | 164 ft | 10 kts | 237° |
| 2026-04-25 19:25 | 60.30822 | 24.93463 | 163 ft | 0 kts | 280° |
| 2026-04-25 19:27 | 60.30843 | 24.93398 | 164 ft | 11 kts | 320° |
| 2026-04-25 19:28 | 60.30899 | 24.93347 | 166 ft | 7 kts | 337° |
| 2026-04-25 19:28 | 60.30927 | 24.93316 | 168 ft | 3 kts | 326° |
| 2026-04-25 19:28 | 60.30941 | 24.93303 | 168 ft | 5 kts | 341° |
| 2026-04-25 19:28 | 60.31001 | 24.93356 | 167 ft | 14 kts | 44° |
| 2026-04-25 19:29 | 60.31014 | 24.93384 | 166 ft | 0 kts | 47° |
| 2026-04-25 19:29 | 60.31016 | 24.93387 | 166 ft | 1 kts | 47° |
| 2026-04-25 19:29 | 60.31022 | 24.93401 | 166 ft | 2 kts | 47° |
| 2026-04-25 19:29 | 60.31023 | 24.93404 | 166 ft | 0 kts | 47° |
| 2026-04-25 19:30 | 60.31072 | 24.93511 | 165 ft | 31 kts | 47° |
| 2026-04-25 19:31 | 60.31376 | 24.94172 | 167 ft | 95 kts | 48° |
| 2026-04-25 19:31 | 60.31959 | 24.95461 | 179 ft | 156 kts | 47° |
| 2026-04-25 19:31 | 60.32750 | 24.97256 | 686 ft | 173 kts | 41° |
| 2026-04-25 19:31 | 60.33534 | 24.99007 | 1695 ft | 167 kts | 38° |
| 2026-04-25 19:32 | 60.34376 | 25.00811 | 2264 ft | 182 kts | 39° |
| 2026-04-25 19:32 | 60.35257 | 25.02714 | 2652 ft | 191 kts | 40° |
| 2026-04-25 19:32 | 60.36196 | 25.04766 | 2904 ft | 209 kts | 41° |
| 2026-04-25 19:32 | 60.36534 | 25.05507 | 2953 ft | 216 kts | 41° |
| 2026-04-25 19:33 | 60.38314 | 25.09485 | 3552 ft | 239 kts | 45° |
| 2026-04-25 19:33 | 60.39112 | 25.12450 | 4041 ft | 255 kts | 70° |
| 2026-04-25 19:33 | 60.39063 | 25.16089 | 4514 ft | 270 kts | 105° |
| 2026-04-25 19:33 | 60.38316 | 25.19636 | 5077 ft | 277 kts | 112° |
| 2026-04-25 19:34 | 60.37452 | 25.23163 | 5636 ft | 282 kts | 113° |
| 2026-04-25 19:34 | 60.36585 | 25.26731 | 6280 ft | 282 kts | 113° |
| 2026-04-25 19:34 | 60.35728 | 25.30313 | 6925 ft | 284 kts | 114° |
| 2026-04-25 19:34 | 60.34796 | 25.33813 | 7565 ft | 287 kts | 123° |
| 2026-04-25 19:35 | 60.33490 | 25.36927 | 8133 ft | 293 kts | 137° |
| 2026-04-25 19:35 | 60.31767 | 25.39152 | 8619 ft | 300 kts | 161° |
| 2026-04-25 19:35 | 60.29706 | 25.39698 | 9177 ft | 300 kts | 185° |
| 2026-04-25 19:35 | 60.27628 | 25.39229 | 9683 ft | 305 kts | 194° |
| 2026-04-25 19:36 | 60.25520 | 25.38258 | 9976 ft | 318 kts | 197° |
| 2026-04-25 19:36 | 60.23342 | 25.37027 | 10251 ft | 333 kts | 199° |
| 2026-04-25 19:36 | 60.21063 | 25.35696 | 10515 ft | 347 kts | 198° |
| 2026-04-25 19:36 | 60.18817 | 25.34436 | 10978 ft | 354 kts | 197° |
| 2026-04-25 19:37 | 60.16505 | 25.33210 | 11482 ft | 360 kts | 197° |
| 2026-04-25 19:37 | 60.14233 | 25.32056 | 11972 ft | 364 kts | 196° |
| 2026-04-25 19:37 | 60.12133 | 25.31022 | 12579 ft | 365 kts | 196° |
| 2026-04-25 19:37 | 60.09685 | 25.29838 | 13197 ft | 367 kts | 195° |
| 2026-04-25 19:38 | 60.07182 | 25.28633 | 13623 ft | 374 kts | 196° |
| 2026-04-25 19:38 | 60.04641 | 25.27409 | 14141 ft | 377 kts | 197° |
| 2026-04-25 19:38 | 60.02083 | 25.26177 | 14738 ft | 378 kts | 195° |
| 2026-04-25 19:38 | 59.99530 | 25.24948 | 15374 ft | 377 kts | 195° |
| 2026-04-25 19:39 | 59.96971 | 25.23719 | 15907 ft | 380 kts | 196° |
| 2026-04-25 19:39 | 59.94395 | 25.22478 | 16445 ft | 382 kts | 195° |
| 2026-04-25 19:39 | 59.91931 | 25.21296 | 17061 ft | 379 kts | 197° |
| 2026-04-25 19:39 | 59.89936 | 25.20339 | 17954 ft | 367 kts | 196° |